createdAt,value
2022-11-24T00:05:08.172Z,6.43
2022-11-24T00:10:25.624Z,8.13
2022-11-24T00:15:43.016Z,7.10
2022-11-24T00:21:00.500Z,6.90
2022-11-24T00:26:20.256Z,7.10
2022-11-24T00:31:41.629Z,7.65
2022-11-24T00:36:59.190Z,6.35
2022-11-24T00:42:17.230Z,6.75
2022-11-24T00:47:34.673Z,8.27
2022-11-24T00:52:52.109Z,8.57
2022-11-24T00:58:09.508Z,7.90
2022-11-24T01:03:26.953Z,7.90
2022-11-24T01:08:44.863Z,9.05
2022-11-24T01:14:02.280Z,8.32
2022-11-24T01:19:20.076Z,8.15
2022-11-24T01:24:37.494Z,8.32
2022-11-24T01:29:54.908Z,7.97
2022-11-24T01:35:12.343Z,8.55
2022-11-24T01:40:30.204Z,8.98
2022-11-24T01:45:48.472Z,8.55
2022-11-24T01:51:13.193Z,8.35
2022-11-24T01:56:32.886Z,7.88
2022-11-24T02:01:53.119Z,7.72
2022-11-24T02:07:12.843Z,7.72
2022-11-24T02:12:30.844Z,7.72
2022-11-24T02:17:48.243Z,7.53
2022-11-24T02:23:17.397Z,6.97
2022-11-24T02:28:34.886Z,7.47
2022-11-24T02:33:52.396Z,7.75
2022-11-24T02:39:14.167Z,7.30
2022-11-24T02:44:38.100Z,6.82
2022-11-24T02:49:55.527Z,6.95
2022-11-24T02:55:12.942Z,5.53
2022-11-24T03:00:30.343Z,6.22
2022-11-24T03:05:47.823Z,6.55
2022-11-24T03:11:05.350Z,8.35
2022-11-24T03:16:22.961Z,8.05
2022-11-24T03:21:40.553Z,8.52
2022-11-24T03:26:57.895Z,8.27
2022-11-24T03:32:15.329Z,7.63
2022-11-24T03:37:32.787Z,8.15
2022-11-24T03:42:50.228Z,8.88
2022-11-24T03:48:08.409Z,8.70
2022-11-24T03:53:28.084Z,8.20
2022-11-24T03:58:45.536Z,9.25
2022-11-24T04:04:02.959Z,8.70
2022-11-24T04:09:20.401Z,9.63
2022-11-24T04:14:38.024Z,8.88
2022-11-24T04:19:55.703Z,8.75
2022-11-24T04:25:13.527Z,7.60
2022-11-24T04:30:31.025Z,6.45
2022-11-24T04:35:48.405Z,6.60
2022-11-24T04:41:06.228Z,6.05
2022-11-24T04:46:23.716Z,6.72
2022-11-24T04:51:41.766Z,6.85
2022-11-24T04:56:59.195Z,6.63
2022-11-24T05:02:16.702Z,7.38
2022-11-24T05:07:35.032Z,7.43
2022-11-24T05:12:59.705Z,5.90
2022-11-24T05:18:17.238Z,5.93
2022-11-24T05:23:34.649Z,7.05
2022-11-24T05:28:52.101Z,6.15
2022-11-24T05:34:10.261Z,6.63
2022-11-24T05:39:27.647Z,6.65
2022-11-24T05:44:45.001Z,6.43
2022-11-24T05:50:02.420Z,7.63
2022-11-24T05:55:19.939Z,6.15
2022-11-24T06:00:37.405Z,7.28
2022-11-24T06:05:54.845Z,6.95
2022-11-24T06:11:18.105Z,7.07
2022-11-24T06:16:35.514Z,8.38
2022-11-24T06:21:53.001Z,7.32
2022-11-24T06:27:10.462Z,8.35
2022-11-24T06:32:28.015Z,6.97
2022-11-24T06:37:46.094Z,7.45
2022-11-24T06:43:03.470Z,8.20
2022-11-24T06:48:20.972Z,7.35
2022-11-24T06:53:39.371Z,7.55
2022-11-24T06:58:56.781Z,7.22
2022-11-24T07:04:15.138Z,7.93
2022-11-24T07:09:32.612Z,7.55
2022-11-24T07:14:50.074Z,7.65
2022-11-24T07:20:09.138Z,7.72
2022-11-24T07:25:26.742Z,7.35
2022-11-24T07:30:44.162Z,7.32
2022-11-24T07:36:02.622Z,7.72
2022-11-24T07:41:20.939Z,7.38
2022-11-24T07:46:38.390Z,8.05
2022-11-24T07:51:55.934Z,7.10
2022-11-24T07:57:13.408Z,7.07
2022-11-24T08:02:30.888Z,7.03
2022-11-24T08:07:48.460Z,7.32
2022-11-24T08:13:06.008Z,7.35
2022-11-24T08:18:24.732Z,7.75
2022-11-24T08:23:42.787Z,7.57
2022-11-24T08:29:00.399Z,6.78
2022-11-24T08:34:18.057Z,7.85
2022-11-24T08:39:35.473Z,6.93
2022-11-24T08:44:58.854Z,5.82
2022-11-24T08:50:17.040Z,6.18
2022-11-24T08:55:34.494Z,6.15
2022-11-24T09:00:51.956Z,5.97
2022-11-24T09:06:10.234Z,5.63
2022-11-24T09:11:28.459Z,6.47
2022-11-24T09:16:45.951Z,6.00
2022-11-24T09:22:03.967Z,5.43
2022-11-24T09:27:21.377Z,6.45
2022-11-24T09:32:38.763Z,5.88
2022-11-24T09:37:56.130Z,6.18
2022-11-24T09:43:21.902Z,6.00
2022-11-24T09:48:47.736Z,6.38
2022-11-24T09:54:16.865Z,5.30
2022-11-24T09:59:34.497Z,5.40
2022-11-24T10:04:54.652Z,4.65
2022-11-24T10:10:22.922Z,5.90
2022-11-24T10:15:48.528Z,6.95
2022-11-24T10:21:26.918Z,5.18
2022-11-24T10:27:10.554Z,6.13
2022-11-24T10:32:35.642Z,5.78
2022-11-24T10:37:53.109Z,5.75
2022-11-24T10:43:12.354Z,5.55
2022-11-24T10:48:44.216Z,5.20
2022-11-24T10:54:28.329Z,4.90
2022-11-24T10:59:45.749Z,4.70
2022-11-24T11:05:24.680Z,5.85
2022-11-24T11:10:43.962Z,4.78
2022-11-24T11:16:01.892Z,5.43
2022-11-24T11:21:31.890Z,5.07
2022-11-24T11:27:03.915Z,4.78
2022-11-24T11:38:06.927Z,4.20
2022-11-24T11:43:37.834Z,4.73
2022-11-24T11:48:55.310Z,4.20
2022-11-24T11:54:35.061Z,4.13
2022-11-24T12:00:16.003Z,4.60
2022-11-24T12:06:00.897Z,4.07
2022-11-24T12:11:27.748Z,5.28
2022-11-24T12:17:32.736Z,4.72
2022-11-24T12:23:26.853Z,4.35
2022-11-24T12:28:44.238Z,4.00
2022-11-24T12:34:20.117Z,3.63
2022-11-24T12:39:53.252Z,3.35
2022-11-24T12:45:13.326Z,3.55
2022-11-24T12:50:34.338Z,4.13
2022-11-24T13:01:36.458Z,4.05
2022-11-24T13:07:20.238Z,4.28
2022-11-24T13:12:57.644Z,4.18
2022-11-24T13:18:53.683Z,3.58
2022-11-24T13:24:17.625Z,4.15
2022-11-24T13:29:37.846Z,4.38
2022-11-24T13:35:02.493Z,4.70
2022-11-24T13:40:22.914Z,4.18
2022-11-24T13:45:41.023Z,4.10
2022-11-24T13:50:58.693Z,5.25
2022-11-24T13:56:16.066Z,5.97
2022-11-24T14:01:36.868Z,4.35
2022-11-24T14:06:59.001Z,4.30
2022-11-24T14:12:22.844Z,5.38
2022-11-24T14:17:40.324Z,5.88
2022-11-24T14:22:57.858Z,5.57
2022-11-24T14:28:27.738Z,5.18
2022-11-24T14:33:45.253Z,4.90
2022-11-24T14:39:02.808Z,4.40
2022-11-24T14:44:42.506Z,4.45
2022-11-24T14:50:11.657Z,5.77
2022-11-24T14:55:35.463Z,6.63
2022-11-24T15:01:11.615Z,6.93
2022-11-24T15:06:29.190Z,5.43
2022-11-24T15:11:46.760Z,5.50
2022-11-24T15:17:05.031Z,7.43
2022-11-24T15:22:43.812Z,7.15
2022-11-24T15:28:01.571Z,10.15
2022-11-24T15:33:20.768Z,9.27
2022-11-24T15:38:38.190Z,9.52
2022-11-24T15:43:59.389Z,7.28
2022-11-24T15:49:16.825Z,7.63
2022-11-24T15:54:34.495Z,6.82
2022-11-24T15:59:53.409Z,6.50
2022-11-24T16:05:12.620Z,6.78
2022-11-24T16:10:36.192Z,7.10
2022-11-24T16:15:53.873Z,7.15
2022-11-24T16:21:11.768Z,9.35
2022-11-24T16:26:29.154Z,11.30
2022-11-24T16:31:47.438Z,12.70
2022-11-24T16:37:04.949Z,11.73
2022-11-24T16:42:22.403Z,13.65
2022-11-24T16:47:41.294Z,13.98
2022-11-24T16:52:58.711Z,14.32
2022-11-24T16:58:16.159Z,12.38
2022-11-24T17:03:34.494Z,12.82
2022-11-24T17:08:51.997Z,11.43
2022-11-24T17:14:10.752Z,11.50
2022-11-24T17:19:28.561Z,11.30
2022-11-24T17:24:46.013Z,13.77
2022-11-24T17:30:03.600Z,15.27
2022-11-24T17:35:21.029Z,17.58
2022-11-24T17:40:38.503Z,13.55
2022-11-24T17:45:57.977Z,12.75
2022-11-24T17:51:18.213Z,13.63
2022-11-24T17:56:35.749Z,12.53
2022-11-24T18:01:53.307Z,11.20
2022-11-24T18:07:11.008Z,12.68
2022-11-24T18:12:28.493Z,17.13
2022-11-24T18:17:46.003Z,12.30
2022-11-24T18:23:05.886Z,11.05
2022-11-24T18:28:23.731Z,10.87
2022-11-24T18:33:43.183Z,9.52
2022-11-24T18:39:01.563Z,9.55
2022-11-24T18:44:19.084Z,8.15
2022-11-24T18:49:36.553Z,9.43
2022-11-24T18:54:54.036Z,9.48
2022-11-24T19:00:12.171Z,9.23
2022-11-24T19:05:29.608Z,10.65
2022-11-24T19:10:49.528Z,10.15
2022-11-24T19:16:12.506Z,9.73
2022-11-24T19:21:38.158Z,9.38
2022-11-24T19:26:55.645Z,10.07
2022-11-24T19:32:13.116Z,8.98
2022-11-24T19:37:30.663Z,10.75
2022-11-24T19:42:48.109Z,10.48
2022-11-24T19:48:05.734Z,10.77
2022-11-24T19:53:23.221Z,10.73
2022-11-24T19:58:41.664Z,8.90
2022-11-24T20:04:00.276Z,9.57
2022-11-24T20:09:18.783Z,9.73
2022-11-24T20:14:36.571Z,10.07
2022-11-24T20:19:54.203Z,9.07
2022-11-24T20:25:11.739Z,9.15
2022-11-24T20:30:29.238Z,9.02
2022-11-24T20:35:46.668Z,7.88
2022-11-24T20:41:13.028Z,12.10
2022-11-24T20:46:32.346Z,12.07
2022-11-24T20:51:54.624Z,12.60
2022-11-24T20:57:12.054Z,11.40
2022-11-24T21:02:29.554Z,9.13
2022-11-24T21:07:47.150Z,9.52
2022-11-24T21:13:04.683Z,10.45
2022-11-24T21:18:22.899Z,10.40
2022-11-24T21:23:40.690Z,8.98
2022-11-24T21:28:58.510Z,9.27
2022-11-24T21:34:18.747Z,9.98
2022-11-24T21:39:36.700Z,10.03
2022-11-24T21:44:54.333Z,9.02
2022-11-24T21:50:11.979Z,10.45
2022-11-24T21:55:29.454Z,9.82
2022-11-24T22:00:46.931Z,9.55
2022-11-24T22:06:04.870Z,10.55
2022-11-24T22:11:24.584Z,10.80
2022-11-24T22:16:42.125Z,10.63
2022-11-24T22:21:59.605Z,10.65
2022-11-24T22:27:17.008Z,9.75
2022-11-24T22:32:34.380Z,8.90
2022-11-24T22:37:52.209Z,9.85
2022-11-24T22:43:09.628Z,10.07
2022-11-24T22:48:27.609Z,9.68
2022-11-24T22:53:49.621Z,9.57
2022-11-24T22:59:07.136Z,8.63
2022-11-24T23:04:24.560Z,6.80
2022-11-24T23:09:42.156Z,6.57
2022-11-24T23:14:59.555Z,6.63
2022-11-24T23:20:17.151Z,6.85
2022-11-24T23:25:34.919Z,7.63
2022-11-24T23:30:52.420Z,10.73
2022-11-24T23:36:12.654Z,9.88
2022-11-24T23:41:30.915Z,9.60
2022-11-24T23:46:48.433Z,9.05
2022-11-24T23:52:05.866Z,10.00
2022-11-24T23:57:23.244Z,8.68
